sensor_id;sensor_type;location;lat;lon;timestamp;P1;durP1;ratioP1;P2;durP2;ratioP2
13255;SDS011;37913;48.370;10.930;2023-04-10T00:01:20;90.70;;;38.37;;
13255;SDS011;37913;48.370;10.930;2023-04-10T00:03:49;87.67;;;37.80;;
13255;SDS011;37913;48.370;10.930;2023-04-10T00:06:16;95.93;;;39.50;;
13255;SDS011;37913;48.370;10.930;2023-04-10T00:08:42;96.03;;;39.77;;
13255;SDS011;37913;48.370;10.930;2023-04-10T00:11:09;82.67;;;37.07;;
13255;SDS011;37913;48.370;10.930;2023-04-10T00:13:36;88.30;;;37.87;;
13255;SDS011;37913;48.370;10.930;2023-04-10T00:16:03;89.47;;;39.43;;
13255;SDS011;37913;48.370;10.930;2023-04-10T00:18:31;91.53;;;39.43;;
13255;SDS011;37913;48.370;10.930;2023-04-10T00:20:59;95.07;;;39.57;;
13255;SDS011;37913;48.370;10.930;2023-04-10T00:23:27;97.43;;;40.40;;
13255;SDS011;37913;48.370;10.930;2023-04-10T00:26:03;88.90;;;39.20;;
13255;SDS011;37913;48.370;10.930;2023-04-10T00:28:31;74.53;;;34.93;;
13255;SDS011;37913;48.370;10.930;2023-04-10T00:30:58;83.07;;;36.93;;
13255;SDS011;37913;48.370;10.930;2023-04-10T00:33:25;91.33;;;38.80;;
13255;SDS011;37913;48.370;10.930;2023-04-10T00:35:54;88.07;;;38.07;;
13255;SDS011;37913;48.370;10.930;2023-04-10T00:38:22;87.43;;;38.33;;
13255;SDS011;37913;48.370;10.930;2023-04-10T00:40:49;92.97;;;38.43;;
13255;SDS011;37913;48.370;10.930;2023-04-10T00:43:16;92.53;;;39.90;;
13255;SDS011;37913;48.370;10.930;2023-04-10T00:45:44;93.40;;;40.57;;
13255;SDS011;37913;48.370;10.930;2023-04-10T00:48:11;101.20;;;43.10;;
13255;SDS011;37913;48.370;10.930;2023-04-10T00:50:38;88.43;;;39.17;;
13255;SDS011;37913;48.370;10.930;2023-04-10T00:53:05;86.27;;;38.23;;
13255;SDS011;37913;48.370;10.930;2023-04-10T00:55:34;88.97;;;39.30;;
13255;SDS011;37913;48.370;10.930;2023-04-10T00:58:02;95.07;;;39.40;;
13255;SDS011;37913;48.370;10.930;2023-04-10T01:00:29;85.23;;;37.77;;
13255;SDS011;37913;48.370;10.930;2023-04-10T01:02:59;87.90;;;37.93;;
13255;SDS011;37913;48.370;10.930;2023-04-10T01:05:27;92.47;;;39.27;;
13255;SDS011;37913;48.370;10.930;2023-04-10T01:08:01;92.73;;;39.87;;
13255;SDS011;37913;48.370;10.930;2023-04-10T01:10:40;100.93;;;41.43;;
13255;SDS011;37913;48.370;10.930;2023-04-10T01:13:14;93.23;;;39.30;;
13255;SDS011;37913;48.370;10.930;2023-04-10T01:15:48;89.73;;;37.97;;
13255;SDS011;37913;48.370;10.930;2023-04-10T01:18:25;95.33;;;39.07;;
13255;SDS011;37913;48.370;10.930;2023-04-10T01:20:57;92.30;;;38.30;;
13255;SDS011;37913;48.370;10.930;2023-04-10T01:23:37;89.70;;;37.80;;
13255;SDS011;37913;48.370;10.930;2023-04-10T01:26:13;85.60;;;37.30;;
13255;SDS011;37913;48.370;10.930;2023-04-10T01:28:51;90.23;;;38.17;;
13255;SDS011;37913;48.370;10.930;2023-04-10T01:31:24;96.17;;;38.87;;
13255;SDS011;37913;48.370;10.930;2023-04-10T01:33:58;80.33;;;35.57;;
13255;SDS011;37913;48.370;10.930;2023-04-10T01:36:30;93.17;;;37.33;;
13255;SDS011;37913;48.370;10.930;2023-04-10T01:39:03;90.17;;;37.50;;
13255;SDS011;37913;48.370;10.930;2023-04-10T01:41:30;86.00;;;37.07;;
13255;SDS011;37913;48.370;10.930;2023-04-10T01:44:00;93.50;;;38.00;;
13255;SDS011;37913;48.370;10.930;2023-04-10T01:46:29;77.63;;;36.03;;
13255;SDS011;37913;48.370;10.930;2023-04-10T01:48:57;92.97;;;37.27;;
13255;SDS011;37913;48.370;10.930;2023-04-10T01:51:29;84.77;;;36.67;;
13255;SDS011;37913;48.370;10.930;2023-04-10T01:53:58;93.77;;;38.80;;
13255;SDS011;37913;48.370;10.930;2023-04-10T01:56:26;95.67;;;38.77;;
13255;SDS011;37913;48.370;10.930;2023-04-10T01:58:53;89.37;;;38.37;;
13255;SDS011;37913;48.370;10.930;2023-04-10T02:01:22;92.67;;;38.03;;
13255;SDS011;37913;48.370;10.930;2023-04-10T02:03:49;110.37;;;42.03;;
13255;SDS011;37913;48.370;10.930;2023-04-10T02:06:22;89.23;;;39.50;;
13255;SDS011;37913;48.370;10.930;2023-04-10T02:08:58;95.33;;;38.63;;
13255;SDS011;37913;48.370;10.930;2023-04-10T02:11:36;91.77;;;38.17;;
13255;SDS011;37913;48.370;10.930;2023-04-10T02:14:08;91.27;;;38.53;;
13255;SDS011;37913;48.370;10.930;2023-04-10T02:16:38;92.87;;;39.30;;
13255;SDS011;37913;48.370;10.930;2023-04-10T02:19:06;97.33;;;41.07;;
13255;SDS011;37913;48.370;10.930;2023-04-10T02:21:34;109.27;;;43.20;;
13255;SDS011;37913;48.370;10.930;2023-04-10T02:24:04;100.13;;;39.83;;
13255;SDS011;37913;48.370;10.930;2023-04-10T02:26:42;95.17;;;42.20;;
13255;SDS011;37913;48.370;10.930;2023-04-10T02:29:09;94.53;;;40.17;;
13255;SDS011;37913;48.370;10.930;2023-04-10T02:31:38;93.20;;;40.23;;
13255;SDS011;37913;48.370;10.930;2023-04-10T02:34:05;126.60;;;49.03;;
13255;SDS011;37913;48.370;10.930;2023-04-10T02:36:32;134.80;;;49.80;;
13255;SDS011;37913;48.370;10.930;2023-04-10T02:39:00;94.63;;;40.50;;
13255;SDS011;37913;48.370;10.930;2023-04-10T02:41:27;92.97;;;39.07;;
13255;SDS011;37913;48.370;10.930;2023-04-10T02:43:55;92.17;;;37.50;;
13255;SDS011;37913;48.370;10.930;2023-04-10T02:46:22;101.30;;;41.67;;
13255;SDS011;37913;48.370;10.930;2023-04-10T02:48:51;114.20;;;43.77;;
13255;SDS011;37913;48.370;10.930;2023-04-10T02:51:19;99.80;;;41.53;;
13255;SDS011;37913;48.370;10.930;2023-04-10T02:53:46;106.80;;;41.80;;
13255;SDS011;37913;48.370;10.930;2023-04-10T02:56:13;98.33;;;41.93;;
13255;SDS011;37913;48.370;10.930;2023-04-10T02:58:40;103.07;;;41.70;;
13255;SDS011;37913;48.370;10.930;2023-04-10T03:01:10;97.93;;;39.47;;
13255;SDS011;37913;48.370;10.930;2023-04-10T03:03:37;85.43;;;36.57;;
13255;SDS011;37913;48.370;10.930;2023-04-10T03:06:06;102.07;;;39.97;;
13255;SDS011;37913;48.370;10.930;2023-04-10T03:08:34;84.33;;;36.97;;
13255;SDS011;37913;48.370;10.930;2023-04-10T03:11:00;92.50;;;38.03;;
13255;SDS011;37913;48.370;10.930;2023-04-10T03:13:27;84.30;;;36.20;;
13255;SDS011;37913;48.370;10.930;2023-04-10T03:15:54;93.83;;;39.13;;
13255;SDS011;37913;48.370;10.930;2023-04-10T03:18:21;90.33;;;38.20;;
13255;SDS011;37913;48.370;10.930;2023-04-10T03:20:48;82.67;;;36.23;;
13255;SDS011;37913;48.370;10.930;2023-04-10T03:23:16;88.87;;;36.77;;
13255;SDS011;37913;48.370;10.930;2023-04-10T03:25:43;89.43;;;37.10;;
13255;SDS011;37913;48.370;10.930;2023-04-10T03:28:15;87.57;;;36.77;;
13255;SDS011;37913;48.370;10.930;2023-04-10T03:30:41;97.93;;;38.83;;
13255;SDS011;37913;48.370;10.930;2023-04-10T03:33:08;78.20;;;35.03;;
13255;SDS011;37913;48.370;10.930;2023-04-10T03:35:35;88.40;;;36.93;;
13255;SDS011;37913;48.370;10.930;2023-04-10T03:38:02;92.37;;;37.70;;
13255;SDS011;37913;48.370;10.930;2023-04-10T03:40:30;91.33;;;37.33;;
13255;SDS011;37913;48.370;10.930;2023-04-10T03:42:58;89.63;;;37.53;;
13255;SDS011;37913;48.370;10.930;2023-04-10T03:45:25;87.93;;;37.60;;
13255;SDS011;37913;48.370;10.930;2023-04-10T03:47:52;78.40;;;35.37;;
13255;SDS011;37913;48.370;10.930;2023-04-10T03:50:19;84.90;;;35.73;;
13255;SDS011;37913;48.370;10.930;2023-04-10T03:52:46;84.17;;;36.33;;
13255;SDS011;37913;48.370;10.930;2023-04-10T03:55:13;88.30;;;37.37;;
13255;SDS011;37913;48.370;10.930;2023-04-10T03:57:44;89.87;;;37.60;;
13255;SDS011;37913;48.370;10.930;2023-04-10T04:00:11;82.90;;;36.13;;
13255;SDS011;37913;48.370;10.930;2023-04-10T04:02:40;84.87;;;36.97;;
13255;SDS011;37913;48.370;10.930;2023-04-10T04:05:07;83.83;;;35.93;;
13255;SDS011;37913;48.370;10.930;2023-04-10T04:07:34;81.80;;;35.27;;
13255;SDS011;37913;48.370;10.930;2023-04-10T04:10:01;82.30;;;36.47;;
13255;SDS011;37913;48.370;10.930;2023-04-10T04:12:30;83.13;;;36.10;;
13255;SDS011;37913;48.370;10.930;2023-04-10T04:14:58;97.23;;;39.20;;
13255;SDS011;37913;48.370;10.930;2023-04-10T04:17:25;81.10;;;35.70;;
13255;SDS011;37913;48.370;10.930;2023-04-10T04:19:52;90.77;;;37.23;;
13255;SDS011;37913;48.370;10.930;2023-04-10T04:22:19;85.27;;;36.70;;
13255;SDS011;37913;48.370;10.930;2023-04-10T04:24:46;82.57;;;36.13;;
13255;SDS011;37913;48.370;10.930;2023-04-10T04:27:12;94.73;;;38.50;;
13255;SDS011;37913;48.370;10.930;2023-04-10T04:29:40;81.63;;;36.43;;
13255;SDS011;37913;48.370;10.930;2023-04-10T04:32:08;88.87;;;36.70;;
13255;SDS011;37913;48.370;10.930;2023-04-10T04:34:35;102.23;;;39.63;;
13255;SDS011;37913;48.370;10.930;2023-04-10T04:37:02;81.70;;;35.63;;
13255;SDS011;37913;48.370;10.930;2023-04-10T04:39:29;85.93;;;36.93;;
13255;SDS011;37913;48.370;10.930;2023-04-10T04:41:56;81.00;;;35.10;;
13255;SDS011;37913;48.370;10.930;2023-04-10T04:44:23;87.87;;;36.47;;
13255;SDS011;37913;48.370;10.930;2023-04-10T04:46:50;77.50;;;35.30;;
13255;SDS011;37913;48.370;10.930;2023-04-10T04:49:18;97.17;;;39.47;;
13255;SDS011;37913;48.370;10.930;2023-04-10T04:51:45;83.90;;;36.30;;
13255;SDS011;37913;48.370;10.930;2023-04-10T04:54:12;91.53;;;37.37;;
13255;SDS011;37913;48.370;10.930;2023-04-10T04:56:39;93.37;;;37.50;;
13255;SDS011;37913;48.370;10.930;2023-04-10T04:59:05;90.40;;;37.73;;
13255;SDS011;37913;48.370;10.930;2023-04-10T05:01:32;88.50;;;37.57;;
13255;SDS011;37913;48.370;10.930;2023-04-10T05:03:59;86.43;;;36.73;;
13255;SDS011;37913;48.370;10.930;2023-04-10T05:06:28;88.07;;;37.43;;
13255;SDS011;37913;48.370;10.930;2023-04-10T05:08:55;87.73;;;37.70;;
13255;SDS011;37913;48.370;10.930;2023-04-10T05:11:22;97.67;;;40.30;;
13255;SDS011;37913;48.370;10.930;2023-04-10T05:13:49;100.97;;;40.13;;
13255;SDS011;37913;48.370;10.930;2023-04-10T05:16:16;94.87;;;40.20;;
13255;SDS011;37913;48.370;10.930;2023-04-10T05:18:43;158.87;;;56.17;;
13255;SDS011;37913;48.370;10.930;2023-04-10T05:21:11;107.50;;;41.87;;
13255;SDS011;37913;48.370;10.930;2023-04-10T05:23:39;96.43;;;40.80;;
13255;SDS011;37913;48.370;10.930;2023-04-10T05:26:06;100.00;;;40.87;;
13255;SDS011;37913;48.370;10.930;2023-04-10T05:28:33;84.53;;;37.43;;
13255;SDS011;37913;48.370;10.930;2023-04-10T05:31:00;96.50;;;39.33;;
13255;SDS011;37913;48.370;10.930;2023-04-10T05:33:27;83.70;;;37.43;;
13255;SDS011;37913;48.370;10.930;2023-04-10T05:35:54;87.87;;;38.27;;
13255;SDS011;37913;48.370;10.930;2023-04-10T05:38:20;87.20;;;37.70;;
13255;SDS011;37913;48.370;10.930;2023-04-10T05:40:51;86.23;;;37.70;;
13255;SDS011;37913;48.370;10.930;2023-04-10T05:43:17;87.20;;;38.17;;
13255;SDS011;37913;48.370;10.930;2023-04-10T05:45:46;86.37;;;38.10;;
13255;SDS011;37913;48.370;10.930;2023-04-10T05:48:13;86.50;;;37.37;;
13255;SDS011;37913;48.370;10.930;2023-04-10T05:50:39;90.83;;;38.43;;
13255;SDS011;37913;48.370;10.930;2023-04-10T05:53:09;91.70;;;38.90;;
13255;SDS011;37913;48.370;10.930;2023-04-10T05:55:38;85.13;;;37.40;;
13255;SDS011;37913;48.370;10.930;2023-04-10T05:58:06;81.88;;;36.78;;
13255;SDS011;37913;48.370;10.930;2023-04-10T06:00:33;89.00;;;38.17;;
13255;SDS011;37913;48.370;10.930;2023-04-10T06:03:01;88.00;;;38.60;;
13255;SDS011;37913;48.370;10.930;2023-04-10T06:05:28;92.50;;;38.85;;
13255;SDS011;37913;48.370;10.930;2023-04-10T06:07:55;84.10;;;36.90;;
13255;SDS011;37913;48.370;10.930;2023-04-10T06:10:22;82.68;;;36.78;;
13255;SDS011;37913;48.370;10.930;2023-04-10T06:12:49;88.85;;;38.50;;
13255;SDS011;37913;48.370;10.930;2023-04-10T06:15:19;82.50;;;39.45;;
13255;SDS011;37913;48.370;10.930;2023-04-10T06:17:46;86.95;;;39.33;;
13255;SDS011;37913;48.370;10.930;2023-04-10T06:20:13;87.07;;;39.28;;
13255;SDS011;37913;48.370;10.930;2023-04-10T06:22:40;81.63;;;37.30;;
13255;SDS011;37913;48.370;10.930;2023-04-10T06:25:07;93.50;;;38.85;;
13255;SDS011;37913;48.370;10.930;2023-04-10T06:27:35;86.85;;;39.20;;
13255;SDS011;37913;48.370;10.930;2023-04-10T06:30:02;78.80;;;39.40;;
13255;SDS011;37913;48.370;10.930;2023-04-10T06:32:31;81.13;;;38.08;;
13255;SDS011;37913;48.370;10.930;2023-04-10T06:34:58;96.32;;;40.42;;
13255;SDS011;37913;48.370;10.930;2023-04-10T06:37:26;94.55;;;69.50;;
13255;SDS011;37913;48.370;10.930;2023-04-10T06:40:00;92.63;;;40.95;;
13255;SDS011;37913;48.370;10.930;2023-04-10T06:42:29;88.38;;;38.42;;
13255;SDS011;37913;48.370;10.930;2023-04-10T06:44:56;103.50;;;47.90;;
13255;SDS011;37913;48.370;10.930;2023-04-10T06:47:23;95.32;;;44.20;;
13255;SDS011;37913;48.370;10.930;2023-04-10T06:49:51;90.38;;;39.28;;
13255;SDS011;37913;48.370;10.930;2023-04-10T06:52:18;93.47;;;40.05;;
13255;SDS011;37913;48.370;10.930;2023-04-10T06:54:45;99.72;;;40.75;;
13255;SDS011;37913;48.370;10.930;2023-04-10T06:57:13;180.80;;;56.92;;
13255;SDS011;37913;48.370;10.930;2023-04-10T06:59:40;84.38;;;38.67;;
13255;SDS011;37913;48.370;10.930;2023-04-10T07:02:07;76.93;;;37.17;;
13255;SDS011;37913;48.370;10.930;2023-04-10T07:04:40;90.65;;;40.58;;
13255;SDS011;37913;48.370;10.930;2023-04-10T07:07:09;86.10;;;39.35;;
13255;SDS011;37913;48.370;10.930;2023-04-10T07:09:38;93.95;;;41.83;;
13255;SDS011;37913;48.370;10.930;2023-04-10T07:12:05;80.00;;;38.30;;
13255;SDS011;37913;48.370;10.930;2023-04-10T07:14:33;87.18;;;39.63;;
13255;SDS011;37913;48.370;10.930;2023-04-10T07:17:00;94.50;;;41.03;;
13255;SDS011;37913;48.370;10.930;2023-04-10T07:19:27;90.75;;;40.70;;
13255;SDS011;37913;48.370;10.930;2023-04-10T07:21:54;91.32;;;41.60;;
13255;SDS011;37913;48.370;10.930;2023-04-10T07:24:22;97.20;;;42.35;;
13255;SDS011;37913;48.370;10.930;2023-04-10T07:26:49;86.22;;;41.22;;
13255;SDS011;37913;48.370;10.930;2023-04-10T07:29:16;92.65;;;41.75;;
13255;SDS011;37913;48.370;10.930;2023-04-10T07:31:43;87.55;;;41.13;;
13255;SDS011;37913;48.370;10.930;2023-04-10T07:34:10;87.63;;;41.17;;
13255;SDS011;37913;48.370;10.930;2023-04-10T07:36:37;91.65;;;43.08;;
13255;SDS011;37913;48.370;10.930;2023-04-10T07:39:04;85.40;;;41.85;;
13255;SDS011;37913;48.370;10.930;2023-04-10T07:41:33;85.90;;;42.55;;
13255;SDS011;37913;48.370;10.930;2023-04-10T07:44:00;87.00;;;42.78;;
13255;SDS011;37913;48.370;10.930;2023-04-10T07:46:27;95.07;;;44.38;;
13255;SDS011;37913;48.370;10.930;2023-04-10T07:48:54;92.70;;;43.42;;
13255;SDS011;37913;48.370;10.930;2023-04-10T07:51:21;97.43;;;44.90;;
13255;SDS011;37913;48.370;10.930;2023-04-10T07:53:48;92.15;;;43.53;;
13255;SDS011;37913;48.370;10.930;2023-04-10T07:56:16;95.40;;;43.78;;
13255;SDS011;37913;48.370;10.930;2023-04-10T07:58:45;91.70;;;43.53;;
13255;SDS011;37913;48.370;10.930;2023-04-10T08:01:12;92.18;;;44.00;;
13255;SDS011;37913;48.370;10.930;2023-04-10T08:03:40;99.30;;;47.20;;
13255;SDS011;37913;48.370;10.930;2023-04-10T08:06:08;97.53;;;47.42;;
13255;SDS011;37913;48.370;10.930;2023-04-10T08:08:36;82.43;;;45.50;;
13255;SDS011;37913;48.370;10.930;2023-04-10T08:11:05;93.45;;;46.28;;
13255;SDS011;37913;48.370;10.930;2023-04-10T08:13:33;92.95;;;45.88;;
13255;SDS011;37913;48.370;10.930;2023-04-10T08:16:03;93.93;;;46.67;;
13255;SDS011;37913;48.370;10.930;2023-04-10T08:18:31;93.30;;;45.55;;
13255;SDS011;37913;48.370;10.930;2023-04-10T08:20:58;93.22;;;45.92;;
13255;SDS011;37913;48.370;10.930;2023-04-10T08:23:25;85.72;;;44.05;;
13255;SDS011;37913;48.370;10.930;2023-04-10T08:25:52;87.38;;;44.33;;
13255;SDS011;37913;48.370;10.930;2023-04-10T08:28:19;88.05;;;44.50;;
13255;SDS011;37913;48.370;10.930;2023-04-10T08:30:47;86.93;;;43.63;;
13255;SDS011;37913;48.370;10.930;2023-04-10T08:33:15;87.45;;;43.53;;
13255;SDS011;37913;48.370;10.930;2023-04-10T08:35:42;95.82;;;46.53;;
13255;SDS011;37913;48.370;10.930;2023-04-10T08:38:13;99.38;;;47.15;;
13255;SDS011;37913;48.370;10.930;2023-04-10T08:40:40;93.95;;;46.70;;
13255;SDS011;37913;48.370;10.930;2023-04-10T08:43:08;93.72;;;46.08;;
13255;SDS011;37913;48.370;10.930;2023-04-10T08:45:38;103.50;;;49.03;;
13255;SDS011;37913;48.370;10.930;2023-04-10T08:48:05;94.70;;;47.88;;
13255;SDS011;37913;48.370;10.930;2023-04-10T08:50:40;100.88;;;50.75;;
13255;SDS011;37913;48.370;10.930;2023-04-10T08:53:10;89.78;;;45.78;;
13255;SDS011;37913;48.370;10.930;2023-04-10T08:55:38;92.20;;;47.05;;
13255;SDS011;37913;48.370;10.930;2023-04-10T08:58:06;103.13;;;49.22;;
13255;SDS011;37913;48.370;10.930;2023-04-10T09:00:34;97.15;;;49.25;;
13255;SDS011;37913;48.370;10.930;2023-04-10T09:03:03;107.82;;;51.03;;
13255;SDS011;37913;48.370;10.930;2023-04-10T09:05:32;104.93;;;51.60;;
13255;SDS011;37913;48.370;10.930;2023-04-10T09:08:03;106.07;;;55.90;;
13255;SDS011;37913;48.370;10.930;2023-04-10T09:10:33;109.10;;;52.00;;
13255;SDS011;37913;48.370;10.930;2023-04-10T09:13:02;94.18;;;49.55;;
13255;SDS011;37913;48.370;10.930;2023-04-10T09:15:29;94.43;;;48.60;;
13255;SDS011;37913;48.370;10.930;2023-04-10T09:17:56;94.50;;;48.58;;
13255;SDS011;37913;48.370;10.930;2023-04-10T09:20:25;91.82;;;47.40;;
13255;SDS011;37913;48.370;10.930;2023-04-10T09:22:54;93.00;;;56.78;;
13255;SDS011;37913;48.370;10.930;2023-04-10T09:25:30;103.20;;;51.08;;
13255;SDS011;37913;48.370;10.930;2023-04-10T09:28:03;90.22;;;48.25;;
13255;SDS011;37913;48.370;10.930;2023-04-10T09:30:35;90.65;;;47.17;;
13255;SDS011;37913;48.370;10.930;2023-04-10T09:35:47;97.20;;;48.10;;
13255;SDS011;37913;48.370;10.930;2023-04-10T09:38:15;87.30;;;54.70;;
13255;SDS011;37913;48.370;10.930;2023-04-10T09:40:44;88.60;;;48.58;;
13255;SDS011;37913;48.370;10.930;2023-04-10T09:43:19;96.90;;;51.20;;
13255;SDS011;37913;48.370;10.930;2023-04-10T09:45:48;97.93;;;52.60;;
13255;SDS011;37913;48.370;10.930;2023-04-10T09:48:16;93.25;;;55.83;;
13255;SDS011;37913;48.370;10.930;2023-04-10T09:50:44;93.55;;;51.05;;
13255;SDS011;37913;48.370;10.930;2023-04-10T09:53:12;92.50;;;52.30;;
13255;SDS011;37913;48.370;10.930;2023-04-10T09:55:41;96.70;;;51.50;;
13255;SDS011;37913;48.370;10.930;2023-04-10T09:58:10;87.32;;;50.15;;
13255;SDS011;37913;48.370;10.930;2023-04-10T10:00:40;94.55;;;54.58;;
13255;SDS011;37913;48.370;10.930;2023-04-10T10:03:09;92.65;;;52.58;;
13255;SDS011;37913;48.370;10.930;2023-04-10T10:05:37;88.47;;;49.90;;
13255;SDS011;37913;48.370;10.930;2023-04-10T10:08:06;99.50;;;53.38;;
13255;SDS011;37913;48.370;10.930;2023-04-10T10:10:35;87.45;;;49.65;;
13255;SDS011;37913;48.370;10.930;2023-04-10T10:13:05;88.40;;;51.03;;
13255;SDS011;37913;48.370;10.930;2023-04-10T10:15:35;112.55;;;58.72;;
13255;SDS011;37913;48.370;10.930;2023-04-10T10:18:10;99.95;;;57.85;;
13255;SDS011;37913;48.370;10.930;2023-04-10T10:20:50;108.50;;;62.08;;
13255;SDS011;37913;48.370;10.930;2023-04-10T10:23:18;95.10;;;57.97;;
13255;SDS011;37913;48.370;10.930;2023-04-10T10:25:47;85.07;;;55.50;;
13255;SDS011;37913;48.370;10.930;2023-04-10T10:28:17;91.20;;;56.72;;
13255;SDS011;37913;48.370;10.930;2023-04-10T10:30:49;95.43;;;61.67;;
13255;SDS011;37913;48.370;10.930;2023-04-10T10:33:21;96.97;;;62.72;;
13255;SDS011;37913;48.370;10.930;2023-04-10T10:35:55;94.35;;;62.97;;
13255;SDS011;37913;48.370;10.930;2023-04-10T10:38:25;94.53;;;64.80;;
13255;SDS011;37913;48.370;10.930;2023-04-10T10:40:53;104.50;;;66.25;;
13255;SDS011;37913;48.370;10.930;2023-04-10T10:43:26;96.32;;;64.68;;
13255;SDS011;37913;48.370;10.930;2023-04-10T10:46:06;102.28;;;66.20;;
13255;SDS011;37913;48.370;10.930;2023-04-10T10:48:37;98.43;;;63.35;;
13255;SDS011;37913;48.370;10.930;2023-04-10T10:51:05;102.25;;;65.28;;
13255;SDS011;37913;48.370;10.930;2023-04-10T10:53:33;99.60;;;66.05;;
13255;SDS011;37913;48.370;10.930;2023-04-10T10:59:01;106.28;;;63.08;;
13255;SDS011;37913;48.370;10.930;2023-04-10T11:01:29;105.00;;;59.53;;
13255;SDS011;37913;48.370;10.930;2023-04-10T11:03:56;99.43;;;58.03;;
13255;SDS011;37913;48.370;10.930;2023-04-10T11:12:11;86.43;;;55.90;;
13255;SDS011;37913;48.370;10.930;2023-04-10T11:14:38;98.05;;;60.03;;
13255;SDS011;37913;48.370;10.930;2023-04-10T11:17:08;122.13;;;66.43;;
13255;SDS011;37913;48.370;10.930;2023-04-10T11:22:24;103.28;;;57.65;;
13255;SDS011;37913;48.370;10.930;2023-04-10T11:24:57;123.45;;;61.00;;
13255;SDS011;37913;48.370;10.930;2023-04-10T11:27:41;96.55;;;56.38;;
13255;SDS011;37913;48.370;10.930;2023-04-10T11:32:58;102.93;;;60.50;;
13255;SDS011;37913;48.370;10.930;2023-04-10T11:35:26;102.47;;;60.72;;
13255;SDS011;37913;48.370;10.930;2023-04-10T11:38:15;99.00;;;59.50;;
13255;SDS011;37913;48.370;10.930;2023-04-10T11:40:56;85.35;;;55.47;;
13255;SDS011;37913;48.370;10.930;2023-04-10T11:43:28;92.85;;;55.92;;
13255;SDS011;37913;48.370;10.930;2023-04-10T11:46:03;95.43;;;57.67;;
13255;SDS011;37913;48.370;10.930;2023-04-10T11:48:33;111.05;;;61.55;;
13255;SDS011;37913;48.370;10.930;2023-04-10T11:51:10;95.50;;;60.95;;
13255;SDS011;37913;48.370;10.930;2023-04-10T11:53:38;102.43;;;59.35;;
13255;SDS011;37913;48.370;10.930;2023-04-10T11:56:13;90.10;;;55.90;;
13255;SDS011;37913;48.370;10.930;2023-04-10T11:58:49;91.03;;;61.17;;
13255;SDS011;37913;48.370;10.930;2023-04-10T12:01:24;88.88;;;58.50;;
13255;SDS011;37913;48.370;10.930;2023-04-10T12:03:53;91.63;;;55.70;;
13255;SDS011;37913;48.370;10.930;2023-04-10T12:06:20;96.85;;;57.33;;
13255;SDS011;37913;48.370;10.930;2023-04-10T12:08:47;96.70;;;58.42;;
13255;SDS011;37913;48.370;10.930;2023-04-10T12:11:16;90.47;;;59.17;;
13255;SDS011;37913;48.370;10.930;2023-04-10T12:13:44;93.90;;;59.15;;
13255;SDS011;37913;48.370;10.930;2023-04-10T12:16:12;92.30;;;58.85;;
13255;SDS011;37913;48.370;10.930;2023-04-10T12:18:39;99.45;;;58.95;;
13255;SDS011;37913;48.370;10.930;2023-04-10T12:21:08;88.50;;;56.03;;
13255;SDS011;37913;48.370;10.930;2023-04-10T12:23:35;93.95;;;58.10;;
13255;SDS011;37913;48.370;10.930;2023-04-10T12:26:11;93.60;;;56.97;;
13255;SDS011;37913;48.370;10.930;2023-04-10T12:28:40;95.07;;;56.95;;
13255;SDS011;37913;48.370;10.930;2023-04-10T12:31:08;93.13;;;56.03;;
13255;SDS011;37913;48.370;10.930;2023-04-10T12:33:35;99.55;;;57.97;;
13255;SDS011;37913;48.370;10.930;2023-04-10T12:36:02;91.40;;;58.05;;
13255;SDS011;37913;48.370;10.930;2023-04-10T12:38:38;96.38;;;58.22;;
13255;SDS011;37913;48.370;10.930;2023-04-10T12:41:07;89.35;;;56.33;;
13255;SDS011;37913;48.370;10.930;2023-04-10T12:43:35;96.30;;;57.53;;
13255;SDS011;37913;48.370;10.930;2023-04-10T12:46:04;100.35;;;60.72;;
13255;SDS011;37913;48.370;10.930;2023-04-10T12:48:32;98.38;;;64.93;;
13255;SDS011;37913;48.370;10.930;2023-04-10T12:51:00;99.93;;;62.78;;
13255;SDS011;37913;48.370;10.930;2023-04-10T12:53:28;102.45;;;63.38;;
13255;SDS011;37913;48.370;10.930;2023-04-10T12:55:57;92.97;;;58.13;;
13255;SDS011;37913;48.370;10.930;2023-04-10T12:58:25;93.28;;;56.58;;
13255;SDS011;37913;48.370;10.930;2023-04-10T13:00:56;94.15;;;54.95;;
13255;SDS011;37913;48.370;10.930;2023-04-10T13:03:24;91.90;;;53.03;;
13255;SDS011;37913;48.370;10.930;2023-04-10T13:05:52;95.38;;;53.60;;
13255;SDS011;37913;48.370;10.930;2023-04-10T13:08:19;89.50;;;50.88;;
13255;SDS011;37913;48.370;10.930;2023-04-10T13:10:46;90.10;;;51.10;;
13255;SDS011;37913;48.370;10.930;2023-04-10T13:13:14;98.15;;;53.85;;
13255;SDS011;37913;48.370;10.930;2023-04-10T13:15:48;92.60;;;51.60;;
13255;SDS011;37913;48.370;10.930;2023-04-10T13:18:15;96.00;;;52.10;;
13255;SDS011;37913;48.370;10.930;2023-04-10T13:20:42;97.25;;;53.53;;
13255;SDS011;37913;48.370;10.930;2023-04-10T13:23:09;91.88;;;54.47;;
13255;SDS011;37913;48.370;10.930;2023-04-10T13:25:36;92.65;;;53.47;;
13255;SDS011;37913;48.370;10.930;2023-04-10T13:28:04;99.25;;;55.08;;
13255;SDS011;37913;48.370;10.930;2023-04-10T13:30:39;96.85;;;55.65;;
13255;SDS011;37913;48.370;10.930;2023-04-10T13:33:07;96.60;;;55.65;;
13255;SDS011;37913;48.370;10.930;2023-04-10T13:35:35;93.95;;;56.63;;
13255;SDS011;37913;48.370;10.930;2023-04-10T13:38:02;104.90;;;57.65;;
13255;SDS011;37913;48.370;10.930;2023-04-10T13:40:31;97.68;;;54.92;;
13255;SDS011;37913;48.370;10.930;2023-04-10T13:42:58;101.22;;;54.45;;
13255;SDS011;37913;48.370;10.930;2023-04-10T13:45:25;98.00;;;52.05;;
13255;SDS011;37913;48.370;10.930;2023-04-10T13:47:55;95.65;;;51.75;;
13255;SDS011;37913;48.370;10.930;2023-04-10T13:50:22;90.20;;;50.20;;
13255;SDS011;37913;48.370;10.930;2023-04-10T13:52:49;94.50;;;51.63;;
13255;SDS011;37913;48.370;10.930;2023-04-10T13:55:16;86.90;;;50.50;;
13255;SDS011;37913;48.370;10.930;2023-04-10T13:57:42;94.97;;;53.38;;
13255;SDS011;37913;48.370;10.930;2023-04-10T14:00:10;104.88;;;57.00;;
13255;SDS011;37913;48.370;10.930;2023-04-10T14:02:37;98.78;;;54.53;;
13255;SDS011;37913;48.370;10.930;2023-04-10T14:05:06;102.45;;;56.88;;
13255;SDS011;37913;48.370;10.930;2023-04-10T14:07:34;98.40;;;57.13;;
13255;SDS011;37913;48.370;10.930;2023-04-10T14:10:01;110.80;;;58.03;;
13255;SDS011;37913;48.370;10.930;2023-04-10T14:12:28;96.25;;;52.38;;
13255;SDS011;37913;48.370;10.930;2023-04-10T14:14:54;115.68;;;54.55;;
13255;SDS011;37913;48.370;10.930;2023-04-10T14:17:21;89.68;;;48.35;;
13255;SDS011;37913;48.370;10.930;2023-04-10T14:19:49;92.63;;;48.17;;
13255;SDS011;37913;48.370;10.930;2023-04-10T14:22:19;85.70;;;47.95;;
13255;SDS011;37913;48.370;10.930;2023-04-10T14:24:46;93.78;;;48.30;;
13255;SDS011;37913;48.370;10.930;2023-04-10T14:27:12;92.30;;;47.45;;
13255;SDS011;37913;48.370;10.930;2023-04-10T14:29:40;100.40;;;47.97;;
13255;SDS011;37913;48.370;10.930;2023-04-10T14:32:07;96.05;;;47.45;;